Kyokuho Maru No.15 — JI3715 — position and weather

sailwx.info

Track history (hours):
 
Tides and Currents Weather Stations Pressure Air Temp Water Temp Dewpoint Dewpoint Depression Visibility Wind Speed Wind Dir Waves Ship Positions

Kyokuho Maru No.15

Last reported at 2014-Dec-19 04:08 UTC. Time now 2014-Dec-20 17:14 UTC.
Position N 34°37' E 135°01'.

Length 63 m; draft 3.2 m.

Type: Tanker. MMSI: 431301714.

Date/timePositionNaut miles runAvg speedWind from/ knotsBaromVisibWave heightAir tempDewpointWater temp
2014-Dec-19 04:08N 34°37' E 135°01'5 9.4
2014-Dec-19 03:33N 34°36' E 135°07'1211.7
2014-Dec-19 02:33N 34°39' E 135°21'3 3.4
2014-Dec-19 01:33N 34°40' E 135°25'1 0.7
2014-Dec-19 00:33N 34°40' E 135°25'0 0.0
2014-Dec-18 23:33N 34°40' E 135°25'4 4.2
2014-Dec-18 22:33N 34°37' E 135°22'6 6.0
2014-Dec-18 21:33N 34°31' E 135°24'0 0.0
2014-Dec-18 20:33N 34°31' E 135°24'0 0.0
2014-Dec-18 19:33N 34°31' E 135°24'0 0.0
2014-Dec-18 18:33N 34°31' E 135°24'0 0.0
2014-Dec-18 17:33N 34°31' E 135°24'0 0.0
2014-Dec-18 16:33N 34°31' E 135°24'0 0.0
2014-Dec-18 15:33N 34°31' E 135°24'0 0.0
2014-Dec-18 14:33N 34°31' E 135°24'0 0.0
2014-Dec-18 13:33N 34°31' E 135°24'0 0.0
2014-Dec-18 12:33N 34°31' E 135°24'0 0.0
2014-Dec-18 11:33N 34°31' E 135°24'0 0.0
2014-Dec-18 10:33N 34°31' E 135°24'0 0.0
2014-Dec-18 09:33N 34°31' E 135°24'0 0.0
2014-Dec-18 08:33N 34°31' E 135°24'0 0.0
2014-Dec-18 07:33N 34°31' E 135°24'0 0.0
2014-Dec-18 06:33N 34°31' E 135°24'0 0.0
2014-Dec-18 05:28N 34°31' E 135°24'0 0.0
2014-Dec-18 04:33N 34°31' E 135°24'6 6.2
2014-Dec-18 03:32N 34°35' E 135°19'7 7.3
2014-Dec-18 02:33N 34°42' E 135°16'0 0.0
2014-Dec-18 01:33N 34°42' E 135°16'0 0.0
2014-Dec-18 00:34N 34°42' E 135°16'0 0.0
2014-Dec-17 23:33N 34°42' E 135°16'6 5.7
2014-Dec-17 22:32N 34°37' E 135°14'1111.3
2014-Dec-17 21:33N 34°30' E 135°03'8 7.2
2014-Dec-17 20:30N 34°26' E 134°56'0 0.0
2014-Dec-17 03:09N 34°26' E 134°56'0 0.0
2014-Dec-17 02:09N 34°26' E 134°56'5 0.2
2014-Dec-16 04:19N 34°21' E 134°60'6 8.0
2014-Dec-16 03:33N 34°15' E 134°60'10 9.8
2014-Dec-16 02:33N 34°06' E 135°02'240 4.8
2014-Dec-14 00:28N 35°08' E 139°43'910.1
2014-Dec-13 23:33N 35°17' E 139°44'10 9.6
2014-Dec-13 22:33N 35°27' E 139°47'11 2.5
2014-Dec-13 18:14N 35°36' E 139°55'0 0.0
2014-Dec-13 17:26N 35°36' E 139°55'0 0.0
2014-Dec-13 16:26N 35°36' E 139°55'0 0.0
2014-Dec-13 15:33N 35°36' E 139°55'0 0.0
2014-Dec-13 14:33N 35°36' E 139°55'0 0.0
2014-Dec-13 13:20N 35°36' E 139°55'0 0.0
2014-Dec-13 10:25N 35°36' E 139°55'0 0.0
2014-Dec-13 05:16N 35°36' E 139°55'9 7.2
2014-Dec-13 04:03N 35°33' E 140°05'0 0.3
2014-Dec-13 03:25N 35°33' E 140°05'0 0.0
2014-Dec-13 02:33N 35°33' E 140°05'0 0.0
2014-Dec-13 01:33N 35°33' E 140°05'0 0.0
2014-Dec-13 00:07N 35°33' E 140°05'0 0.0
2014-Dec-12 22:33N 35°33' E 140°05'3 1.0
2014-Dec-12 19:11N 35°36' E 140°06'7 0.3
2014-Dec-11 23:09N 35°37' E 139°58'3 4.6
2014-Dec-11 22:24N 35°35' E 139°55'810.1
2014-Dec-11 21:33N 35°27' E 139°50'1010.2
2014-Dec-11 20:33N 35°18' E 139°45'5 0.1
2014-Dec-10 06:07N 35°14' E 139°46'611.3
2014-Dec-10 05:33N 35°19' E 139°43'1110.7
2014-Dec-10 04:34N 35°29' E 139°49'4 3.5
2014-Dec-10 03:33N 35°31' E 139°46'0 0.0
2014-Dec-10 02:33N 35°31' E 139°46'0 0.0
2014-Dec-10 01:33N 35°31' E 139°46'0 0.0
2014-Dec-10 00:33N 35°31' E 139°46'3 2.9
2014-Dec-09 23:33N 35°30' E 139°48'1 0.9
2014-Dec-09 22:34N 35°29' E 139°48'5 5.2
2014-Dec-09 21:33N 35°24' E 139°46'1110.4
2014-Dec-09 20:33N 35°13' E 139°47'  
Track history (hours):
 
Tides and Currents Weather Stations Pressure Air Temp Water Temp Dewpoint Dewpoint Depression Visibility Wind Speed Wind Dir Waves Ship Positions

Kyokuho Maru No.15

Last reported at 2014-Dec-19 04:08 UTC. Time now 2014-Dec-20 17:14 UTC.
Position N 34°37' E 135°01'.

Length 63 m; draft 3.2 m.

Type: Tanker. MMSI: 431301714.

Date/timePositionNaut miles runAvg speedWind from/ knotsBaromVisibWave heightAir tempDewpointWater temp
2014-Dec-19 04:08N 34°37' E 135°01'5 9.4
2014-Dec-19 03:33N 34°36' E 135°07'1211.7
2014-Dec-19 02:33N 34°39' E 135°21'3 3.4
2014-Dec-19 01:33N 34°40' E 135°25'1 0.7
2014-Dec-19 00:33N 34°40' E 135°25'0 0.0
2014-Dec-18 23:33N 34°40' E 135°25'4 4.2
2014-Dec-18 22:33N 34°37' E 135°22'6 6.0
2014-Dec-18 21:33N 34°31' E 135°24'0 0.0
2014-Dec-18 20:33N 34°31' E 135°24'0 0.0
2014-Dec-18 19:33N 34°31' E 135°24'0 0.0
2014-Dec-18 18:33N 34°31' E 135°24'0 0.0
2014-Dec-18 17:33N 34°31' E 135°24'0 0.0
2014-Dec-18 16:33N 34°31' E 135°24'0 0.0
2014-Dec-18 15:33N 34°31' E 135°24'0 0.0
2014-Dec-18 14:33N 34°31' E 135°24'0 0.0
2014-Dec-18 13:33N 34°31' E 135°24'0 0.0
2014-Dec-18 12:33N 34°31' E 135°24'0 0.0
2014-Dec-18 11:33N 34°31' E 135°24'0 0.0
2014-Dec-18 10:33N 34°31' E 135°24'0 0.0
2014-Dec-18 09:33N 34°31' E 135°24'0 0.0
2014-Dec-18 08:33N 34°31' E 135°24'0 0.0
2014-Dec-18 07:33N 34°31' E 135°24'0 0.0
2014-Dec-18 06:33N 34°31' E 135°24'0 0.0
2014-Dec-18 05:28N 34°31' E 135°24'0 0.0
2014-Dec-18 04:33N 34°31' E 135°24'6 6.2
2014-Dec-18 03:32N 34°35' E 135°19'7 7.3
2014-Dec-18 02:33N 34°42' E 135°16'0 0.0
2014-Dec-18 01:33N 34°42' E 135°16'0 0.0
2014-Dec-18 00:34N 34°42' E 135°16'0 0.0
2014-Dec-17 23:33N 34°42' E 135°16'6 5.7
2014-Dec-17 22:32N 34°37' E 135°14'1111.3
2014-Dec-17 21:33N 34°30' E 135°03'8 7.2
2014-Dec-17 20:30N 34°26' E 134°56'0 0.0
2014-Dec-17 03:09N 34°26' E 134°56'0 0.0
2014-Dec-17 02:09N 34°26' E 134°56'5 0.2
2014-Dec-16 04:19N 34°21' E 134°60'6 8.0
2014-Dec-16 03:33N 34°15' E 134°60'10 9.8
2014-Dec-16 02:33N 34°06' E 135°02'240 4.8
2014-Dec-14 00:28N 35°08' E 139°43'910.1
2014-Dec-13 23:33N 35°17' E 139°44'10 9.6
2014-Dec-13 22:33N 35°27' E 139°47'11 2.5
2014-Dec-13 18:14N 35°36' E 139°55'0 0.0
2014-Dec-13 17:26N 35°36' E 139°55'0 0.0
2014-Dec-13 16:26N 35°36' E 139°55'0 0.0
2014-Dec-13 15:33N 35°36' E 139°55'0 0.0
2014-Dec-13 14:33N 35°36' E 139°55'0 0.0
2014-Dec-13 13:20N 35°36' E 139°55'0 0.0
2014-Dec-13 10:25N 35°36' E 139°55'0 0.0
2014-Dec-13 05:16N 35°36' E 139°55'9 7.2
2014-Dec-13 04:03N 35°33' E 140°05'0 0.3
2014-Dec-13 03:25N 35°33' E 140°05'0 0.0
2014-Dec-13 02:33N 35°33' E 140°05'0 0.0
2014-Dec-13 01:33N 35°33' E 140°05'0 0.0
2014-Dec-13 00:07N 35°33' E 140°05'0 0.0
2014-Dec-12 22:33N 35°33' E 140°05'3 1.0
2014-Dec-12 19:11N 35°36' E 140°06'7 0.3
2014-Dec-11 23:09N 35°37' E 139°58'3 4.6
2014-Dec-11 22:24N 35°35' E 139°55'810.1
2014-Dec-11 21:33N 35°27' E 139°50'1010.2
2014-Dec-11 20:33N 35°18' E 139°45'5 0.1
2014-Dec-10 06:07N 35°14' E 139°46'611.3
2014-Dec-10 05:33N 35°19' E 139°43'1110.7
2014-Dec-10 04:34N 35°29' E 139°49'4 3.5
2014-Dec-10 03:33N 35°31' E 139°46'0 0.0
2014-Dec-10 02:33N 35°31' E 139°46'0 0.0
2014-Dec-10 01:33N 35°31' E 139°46'0 0.0
2014-Dec-10 00:33N 35°31' E 139°46'3 2.9
2014-Dec-09 23:33N 35°30' E 139°48'1 0.9
2014-Dec-09 22:34N 35°29' E 139°48'5 5.2
2014-Dec-09 21:33N 35°24' E 139°46'1110.4
2014-Dec-09 20:33N 35°13' E 139°47'  

Dump ship's entire track history